sensor_id;sensor_type;location;lat;lon;timestamp;P1;P2;P0
45112;PMS5003;30873;53.908;27.576;2022-11-15T00:04:05;11;10;5.5
45112;PMS5003;30873;53.908;27.576;2022-11-15T00:09:15;12.2;9.9;5.4
45112;PMS5003;30873;53.908;27.576;2022-11-15T00:14:33;12.1;9.8;5.8
45112;PMS5003;30873;53.908;27.576;2022-11-15T00:19:17;12.9;10.8;6.4
45112;PMS5003;30873;53.908;27.576;2022-11-15T00:24:47;11.8;10.7;6.2
45112;PMS5003;30873;53.908;27.576;2022-11-15T00:28:59;13.6;11.6;6
45112;PMS5003;30873;53.908;27.576;2022-11-15T00:34:31;12.8;11.6;6.6
45112;PMS5003;30873;53.908;27.576;2022-11-15T00:39:29;13.7;11;6.3
45112;PMS5003;30873;53.908;27.576;2022-11-15T00:44:33;15.9;11.9;7.2
45112;PMS5003;30873;53.908;27.576;2022-11-15T00:49:33;13.4;11.4;6.9
45112;PMS5003;30873;53.908;27.576;2022-11-15T00:54:05;12.3;9.8;6.3
45112;PMS5003;30873;53.908;27.576;2022-11-15T00:59:45;11.2;9.3;5.3
45112;PMS5003;30873;53.908;27.576;2022-11-15T01:03:59;12.6;10.7;5.7
45112;PMS5003;30873;53.908;27.576;2022-11-15T01:09:27;15;12.8;7.1
45112;PMS5003;30873;53.908;27.576;2022-11-15T01:14:21;16.6;13.9;8.2
45112;PMS5003;30873;53.908;27.576;2022-11-15T01:18:59;14.7;11.5;6.5
45112;PMS5003;30873;53.908;27.576;2022-11-15T01:24:05;13;10.2;5.7
45112;PMS5003;30873;53.908;27.576;2022-11-15T01:29:35;13;10.1;5.7
45112;PMS5003;30873;53.908;27.576;2022-11-15T01:34:21;14;11.9;6.1
45112;PMS5003;30873;53.908;27.576;2022-11-15T01:39:51;15.3;13;7.3
45112;PMS5003;30873;53.908;27.576;2022-11-15T01:44:49;17;13.4;7.4
45112;PMS5003;30873;53.908;27.576;2022-11-15T01:49:38;17.1;13.1;7.1
45112;PMS5003;30873;53.908;27.576;2022-11-15T01:54:31;16.2;13.4;6.6
45112;PMS5003;30873;53.908;27.576;2022-11-15T01:59:35;17.2;13.1;7.3
45112;PMS5003;30873;53.908;27.576;2022-11-15T02:04:51;15.2;12.4;6.3
45112;PMS5003;30873;53.908;27.576;2022-11-15T02:08:59;13.9;10.5;5.2
45112;PMS5003;30873;53.908;27.576;2022-11-15T02:14:49;16;12.2;5.7
45112;PMS5003;30873;53.908;27.576;2022-11-15T02:18:59;15.1;11.6;5.4
45112;PMS5003;30873;53.908;27.576;2022-11-15T02:25:14;17.1;12.1;5.8
45112;PMS5003;30873;53.908;27.576;2022-11-15T02:29:15;18.3;12.7;6.1
45112;PMS5003;30873;53.908;27.576;2022-11-15T02:33:59;16.3;12;5.7
45112;PMS5003;30873;53.908;27.576;2022-11-15T02:39:18;17;12.6;6
45112;PMS5003;30873;53.908;27.576;2022-11-15T02:44:40;19.3;14.5;7.5
45112;PMS5003;30873;53.908;27.576;2022-11-15T02:49:21;16.9;13.6;5.8
45112;PMS5003;30873;53.908;27.576;2022-11-15T02:54:53;15;10.8;5.7
45112;PMS5003;30873;53.908;27.576;2022-11-15T02:59:20;14.9;11.5;6.2
45112;PMS5003;30873;53.908;27.576;2022-11-15T03:04:51;16;11.2;5.1
45112;PMS5003;30873;53.908;27.576;2022-11-15T03:09:50;16.1;12.5;5.6
45112;PMS5003;30873;53.908;27.576;2022-11-15T03:14:37;10.3;8.4;3.8
45112;PMS5003;30873;53.908;27.576;2022-11-15T03:19:38;8.3;5.5;3.1
45112;PMS5003;30873;53.908;27.576;2022-11-15T03:24:09;12.1;9.2;4.7
45112;PMS5003;30873;53.908;27.576;2022-11-15T03:29:47;12.2;8.9;4.3
45112;PMS5003;30873;53.908;27.576;2022-11-15T03:34:52;9.1;6.7;4.1
45112;PMS5003;30873;53.908;27.576;2022-11-15T03:39:33;7.4;5.8;3.1
45112;PMS5003;30873;53.908;27.576;2022-11-15T03:44:10;5.8;4;2
45112;PMS5003;30873;53.908;27.576;2022-11-15T03:49:08;6.3;4.7;1.8
45112;PMS5003;30873;53.908;27.576;2022-11-15T03:54:17;6.4;5;2.1
45112;PMS5003;30873;53.908;27.576;2022-11-15T03:59:47;8.4;6.6;3.3
45112;PMS5003;30873;53.908;27.576;2022-11-15T04:04:09;4.3;3.3;1.4
45112;PMS5003;30873;53.908;27.576;2022-11-15T04:09:49;2.2;1.4;0.3
45112;PMS5003;30873;53.908;27.576;2022-11-15T04:13:59;3;2.2;0.9
45112;PMS5003;30873;53.908;27.576;2022-11-15T04:19:31;2.8;2.3;0.7
45112;PMS5003;30873;53.908;27.576;2022-11-15T04:24:15;3.5;2.1;1.1
45112;PMS5003;30873;53.908;27.576;2022-11-15T04:29:37;4.2;3.1;1.7
45112;PMS5003;30873;53.908;27.576;2022-11-15T04:34:35;5.1;4.1;2.1
45112;PMS5003;30873;53.908;27.576;2022-11-15T04:39:23;3.9;3.1;1.2
45112;PMS5003;30873;53.908;27.576;2022-11-15T04:44:49;3.6;2.9;1.3
45112;PMS5003;30873;53.908;27.576;2022-11-15T04:49:35;2.8;2.6;1.4
45112;PMS5003;30873;53.908;27.576;2022-11-15T04:54:29;5.3;4.1;2.4
45112;PMS5003;30873;53.908;27.576;2022-11-15T04:59:21;5.3;4.2;2.3
45112;PMS5003;30873;53.908;27.576;2022-11-15T05:04:09;6.2;4.5;2.5
45112;PMS5003;30873;53.908;27.576;2022-11-15T05:09:19;5.4;4.4;2.5
45112;PMS5003;30873;53.908;27.576;2022-11-15T05:14:47;5;4.6;2.9
45112;PMS5003;30873;53.908;27.576;2022-11-15T05:19:19;7.8;6.5;4.3
45112;PMS5003;30873;53.908;27.576;2022-11-15T05:24:47;11.2;9.9;6.9
45112;PMS5003;30873;53.908;27.576;2022-11-15T05:29:08;10.5;9.3;5.4
45112;PMS5003;30873;53.908;27.576;2022-11-15T05:34:49;11.3;10.8;6.8
45112;PMS5003;30873;53.908;27.576;2022-11-15T05:39:19;10.9;9;5.4
45112;PMS5003;30873;53.908;27.576;2022-11-15T05:44:37;14.8;12.5;8.3
45112;PMS5003;30873;53.908;27.576;2022-11-15T05:49:35;14.9;13.9;9.1
45112;PMS5003;30873;53.908;27.576;2022-11-15T05:54:09;17;14.3;9.6
45112;PMS5003;30873;53.908;27.576;2022-11-15T05:59:31;17.5;14.8;9.1
45112;PMS5003;30873;53.908;27.576;2022-11-15T06:04:49;17;15.2;9.6
45112;PMS5003;30873;53.908;27.576;2022-11-15T06:09:33;15.8;14.1;8.8
45112;PMS5003;30873;53.908;27.576;2022-11-15T06:14:23;12;10.7;6.4
45112;PMS5003;30873;53.908;27.576;2022-11-15T06:18:59;10.8;10;6.4
45112;PMS5003;30873;53.908;27.576;2022-11-15T06:24:19;12;10.5;6.2
45112;PMS5003;30873;53.908;27.576;2022-11-15T06:29:43;13.1;10.4;6.7
45112;PMS5003;30873;53.908;27.576;2022-11-15T06:34:19;14;12.3;8
45112;PMS5003;30873;53.908;27.576;2022-11-15T06:39:45;12;10.6;7.2
45112;PMS5003;30873;53.908;27.576;2022-11-15T06:44:21;12.8;11.4;7.7
45112;PMS5003;30873;53.908;27.576;2022-11-15T06:49:45;14;12.1;8.1
45112;PMS5003;30873;53.908;27.576;2022-11-15T06:54:17;16.2;13.8;8.9
45112;PMS5003;30873;53.908;27.576;2022-11-15T06:59:31;19.6;16.7;11.3
45112;PMS5003;30873;53.908;27.576;2022-11-15T07:04:33;17.2;15.9;9.9
45112;PMS5003;30873;53.908;27.576;2022-11-15T07:09:09;17.5;14.5;9.3
45112;PMS5003;30873;53.908;27.576;2022-11-15T07:14:45;18.7;15.9;10.6
45112;PMS5003;30873;53.908;27.576;2022-11-15T07:19:45;15;13.3;8.3
45112;PMS5003;30873;53.908;27.576;2022-11-15T07:24:31;13.6;12.9;8.1
45112;PMS5003;30873;53.908;27.576;2022-11-15T07:29:21;13.5;11.4;7.4
45112;PMS5003;30873;53.908;27.576;2022-11-15T07:33:57;14.5;12.8;8.1
45112;PMS5003;30873;53.908;27.576;2022-11-15T07:39:33;17.3;15.4;10.3
45112;PMS5003;30873;53.908;27.576;2022-11-15T07:44:45;21.8;19.4;13.2
45112;PMS5003;30873;53.908;27.576;2022-11-15T07:49:21;23.8;21.4;13.7
45112;PMS5003;30873;53.908;27.576;2022-11-15T07:54:49;21.9;19.8;12.4
45112;PMS5003;30873;53.908;27.576;2022-11-15T07:58:59;20.6;18.3;12.4
45112;PMS5003;30873;53.908;27.576;2022-11-15T08:04:43;20.7;18.6;12.9
45112;PMS5003;30873;53.908;27.576;2022-11-15T08:08:59;20.8;18.9;12.5
45112;PMS5003;30873;53.908;27.576;2022-11-15T08:14:31;19.5;18;11.9
45112;PMS5003;30873;53.908;27.576;2022-11-15T08:19:33;21;18.8;12.1
45112;PMS5003;30873;53.908;27.576;2022-11-15T08:24:13;18.9;16.7;10.7
45112;PMS5003;30873;53.908;27.576;2022-11-15T08:29:48;18.5;16.5;11.1
45112;PMS5003;30873;53.908;27.576;2022-11-15T08:34:47;23.1;19.5;13.4
45112;PMS5003;30873;53.908;27.576;2022-11-15T08:39:31;20.3;18.3;11.9
45112;PMS5003;30873;53.908;27.576;2022-11-15T08:44:21;22.9;20.2;12.9
45112;PMS5003;30873;53.908;27.576;2022-11-15T08:48:59;24.6;22;14.7
45112;PMS5003;30873;53.908;27.576;2022-11-15T08:54:19;27.3;24;15.7
45112;PMS5003;30873;53.908;27.576;2022-11-15T08:59:43;28.7;25.4;16.8
45112;PMS5003;30873;53.908;27.576;2022-11-15T09:04:15;26;24;16.1
45112;PMS5003;30873;53.908;27.576;2022-11-15T09:09:45;24.6;22;14.7
45112;PMS5003;30873;53.908;27.576;2022-11-15T09:13:59;20.4;17;11.1
45112;PMS5003;30873;53.908;27.576;2022-11-15T09:19:45;13.8;11.8;7.9
45112;PMS5003;30873;53.908;27.576;2022-11-15T09:24:23;14.7;13.1;8.1
45112;PMS5003;30873;53.908;27.576;2022-11-15T09:29:33;12.9;11.3;7.3
45112;PMS5003;30873;53.908;27.576;2022-11-15T09:34:33;13.9;12.5;7.9
45112;PMS5003;30873;53.908;27.576;2022-11-15T09:38:59;15.4;14.2;8.9
45112;PMS5003;30873;53.908;27.576;2022-11-15T09:44:38;15.5;13.6;9.3
45112;PMS5003;30873;53.908;27.576;2022-11-15T09:49:50;15;13.9;9.2
45112;PMS5003;30873;53.908;27.576;2022-11-15T09:54:30;14.7;13.6;9
45112;PMS5003;30873;53.908;27.576;2022-11-15T09:59:17;14.8;12.7;8.4
45112;PMS5003;30873;53.908;27.576;2022-11-15T10:04:09;15.4;13.4;8.1
45112;PMS5003;30873;53.908;27.576;2022-11-15T10:09:32;16.1;14.1;8.3
45112;PMS5003;30873;53.908;27.576;2022-11-15T10:14:45;16.3;13.5;8.5
45112;PMS5003;30873;53.908;27.576;2022-11-15T10:19:09;15.4;12.7;7.7
45112;PMS5003;30873;53.908;27.576;2022-11-15T10:24:45;19.1;16.2;10.3
45112;PMS5003;30873;53.908;27.576;2022-11-15T10:28:57;19.6;16.9;11.1
45112;PMS5003;30873;53.908;27.576;2022-11-15T10:34:47;24.7;21.1;15.3
45112;PMS5003;30873;53.908;27.576;2022-11-15T10:39:19;29.5;26.9;19.2
45112;PMS5003;30873;53.908;27.576;2022-11-15T10:44:40;21.2;19.4;13.4
45112;PMS5003;30873;53.908;27.576;2022-11-15T10:49:31;19.8;19.2;13.8
45112;PMS5003;30873;53.908;27.576;2022-11-15T10:54:22;22.7;20.6;14.5
45112;PMS5003;30873;53.908;27.576;2022-11-15T10:59:46;21.5;18.5;12.2
45112;PMS5003;30873;53.908;27.576;2022-11-15T11:04:48;23.2;19.8;12.2
45112;PMS5003;30873;53.908;27.576;2022-11-15T11:09:32;20.2;18.1;11.5
45112;PMS5003;30873;53.908;27.576;2022-11-15T11:14:21;21.9;18.7;11.4
45112;PMS5003;30873;53.908;27.576;2022-11-15T11:19:02;21.7;18.4;12.6
45112;PMS5003;30873;53.908;27.576;2022-11-15T11:24:19;19;16.9;10.7
45112;PMS5003;30873;53.908;27.576;2022-11-15T11:29:49;18.3;16.4;10.7
45112;PMS5003;30873;53.908;27.576;2022-11-15T11:34:19;17.7;15.8;10.5
45112;PMS5003;30873;53.908;27.576;2022-11-15T11:39:50;18.2;16.1;10
45112;PMS5003;30873;53.908;27.576;2022-11-15T11:44:02;17.1;15.4;10.2
45112;PMS5003;30873;53.908;27.576;2022-11-15T11:49:08;18;16.1;9.7
45112;PMS5003;30873;53.908;27.576;2022-11-15T11:54:20;17.7;15.7;9.9
45112;PMS5003;30873;53.908;27.576;2022-11-15T11:59:36;17.8;15.6;10.3
45112;PMS5003;30873;53.908;27.576;2022-11-15T12:04:27;19.6;17.3;11.3
45112;PMS5003;30873;53.908;27.576;2022-11-15T12:09:01;18.9;15.1;9.5
45112;PMS5003;30873;53.908;27.576;2022-11-15T12:14:11;18.7;16.7;11.2
45112;PMS5003;30873;53.908;27.576;2022-11-15T12:19:33;17.9;15.6;9.2
45112;PMS5003;30873;53.908;27.576;2022-11-15T12:24:50;19.1;16.4;10.3
45112;PMS5003;30873;53.908;27.576;2022-11-15T12:29:23;20.7;17.8;12.4
45112;PMS5003;30873;53.908;27.576;2022-11-15T12:34:00;17.4;14.7;9.5
45112;PMS5003;30873;53.908;27.576;2022-11-15T12:38:59;15.2;13.7;8.6
45112;PMS5003;30873;53.908;27.576;2022-11-15T12:45:03;18.3;15.4;10
45112;PMS5003;30873;53.908;27.576;2022-11-15T12:48:59;17.6;15;9.4
45112;PMS5003;30873;53.908;27.576;2022-11-15T12:54:54;17.4;15.4;10
45112;PMS5003;30873;53.908;27.576;2022-11-15T12:58:58;19.7;17.4;12.6
45112;PMS5003;30873;53.908;27.576;2022-11-15T13:04:07;17.7;14.7;9.5
45112;PMS5003;30873;53.908;27.576;2022-11-15T13:09:52;15.6;13.8;8.9
45112;PMS5003;30873;53.908;27.576;2022-11-15T13:14:51;14.6;12.8;8.7
45112;PMS5003;30873;53.908;27.576;2022-11-15T13:19:35;15.2;12.8;8.1
45112;PMS5003;30873;53.908;27.576;2022-11-15T13:24:12;14.6;13.6;8.9
45112;PMS5003;30873;53.908;27.576;2022-11-15T13:29:15;15.8;14.7;9.7
45112;PMS5003;30873;53.908;27.576;2022-11-15T13:34:48;18;15;9.1
45112;PMS5003;30873;53.908;27.576;2022-11-15T13:39:47;18.2;15.8;9.9
45112;PMS5003;30873;53.908;27.576;2022-11-15T13:44:24;16.7;14.7;9.7
45112;PMS5003;30873;53.908;27.576;2022-11-15T13:49:00;19.1;16.6;10.9
45112;PMS5003;30873;53.908;27.576;2022-11-15T13:54:13;19.7;17.2;11.9
45112;PMS5003;30873;53.908;27.576;2022-11-15T13:59:48;21.2;18.4;12.2
45112;PMS5003;30873;53.908;27.576;2022-11-15T14:04:38;19.1;16.7;11.1
45112;PMS5003;30873;53.908;27.576;2022-11-15T14:09:37;18.1;15.7;10
45112;PMS5003;30873;53.908;27.576;2022-11-15T14:14:20;16;14.4;9.3
45112;PMS5003;30873;53.908;27.576;2022-11-15T14:19:10;17.6;15.4;9.6
45112;PMS5003;30873;53.908;27.576;2022-11-15T14:24:18;15.4;14.3;9.3
45112;PMS5003;30873;53.908;27.576;2022-11-15T14:29:37;16.9;14.8;10.2
45112;PMS5003;30873;53.908;27.576;2022-11-15T14:34:11;15.8;14.1;9.3
45112;PMS5003;30873;53.908;27.576;2022-11-15T14:39:09;17.7;15.3;9.7
45112;PMS5003;30873;53.908;27.576;2022-11-15T14:43:59;15.1;13.5;8.3
45112;PMS5003;30873;53.908;27.576;2022-11-15T14:49:49;13.3;11.8;8.2
45112;PMS5003;30873;53.908;27.576;2022-11-15T14:54:49;15.4;14;9
45112;PMS5003;30873;53.908;27.576;2022-11-15T14:59:21;14.2;12;8
45112;PMS5003;30873;53.908;27.576;2022-11-15T15:04:19;13.8;12.1;7.8
45112;PMS5003;30873;53.908;27.576;2022-11-15T15:08:59;13.3;11.2;7.4
45112;PMS5003;30873;53.908;27.576;2022-11-15T15:14:48;13.1;11.9;7.6
45112;PMS5003;30873;53.908;27.576;2022-11-15T15:19:09;14.1;12.1;7.9
45112;PMS5003;30873;53.908;27.576;2022-11-15T15:24:35;14.9;13.5;8.7
45112;PMS5003;30873;53.908;27.576;2022-11-15T15:29:07;15.6;13.9;8.6
45112;PMS5003;30873;53.908;27.576;2022-11-15T15:34:19;14.4;12.7;8.4
45112;PMS5003;30873;53.908;27.576;2022-11-15T15:39:08;14.1;13.2;8.7
45112;PMS5003;30873;53.908;27.576;2022-11-15T15:44:37;13.1;12.1;8
45112;PMS5003;30873;53.908;27.576;2022-11-15T15:49:33;16.4;14.8;9.2
45112;PMS5003;30873;53.908;27.576;2022-11-15T15:54:07;14.1;11.7;7.2
45112;PMS5003;30873;53.908;27.576;2022-11-15T15:59:07;15.6;13.9;9.1
45112;PMS5003;30873;53.908;27.576;2022-11-15T16:04:31;15.9;14;8.4
45112;PMS5003;30873;53.908;27.576;2022-11-15T16:09:18;15.1;13;8.4
45112;PMS5003;30873;53.908;27.576;2022-11-15T16:14:49;14.5;12.6;8.1
45112;PMS5003;30873;53.908;27.576;2022-11-15T16:19:23;14.4;12.9;8.5
45112;PMS5003;30873;53.908;27.576;2022-11-15T16:23:59;16;14.6;9.2
45112;PMS5003;30873;53.908;27.576;2022-11-15T16:29:17;15.8;13.6;9
45112;PMS5003;30873;53.908;27.576;2022-11-15T16:34:49;15.1;12.9;8.2
45112;PMS5003;30873;53.908;27.576;2022-11-15T16:39:49;12;10;5.9
45112;PMS5003;30873;53.908;27.576;2022-11-15T16:44:49;11.8;10.6;6.5
45112;PMS5003;30873;53.908;27.576;2022-11-15T16:49:10;10.1;8.9;5.5
45112;PMS5003;30873;53.908;27.576;2022-11-15T16:54:35;10.2;9.3;6.1
45112;PMS5003;30873;53.908;27.576;2022-11-15T16:59:29;13;11;6.8
45112;PMS5003;30873;53.908;27.576;2022-11-15T17:04:37;10.2;8.9;5.5
45112;PMS5003;30873;53.908;27.576;2022-11-15T17:09:35;10.4;9;5.3
45112;PMS5003;30873;53.908;27.576;2022-11-15T17:14:10;10.4;9.5;6.1
45112;PMS5003;30873;53.908;27.576;2022-11-15T17:19:31;11.8;9.7;6
45112;PMS5003;30873;53.908;27.576;2022-11-15T17:24:10;10.1;9.4;6.1
45112;PMS5003;30873;53.908;27.576;2022-11-15T17:29:49;11.3;9.1;5.5
45112;PMS5003;30873;53.908;27.576;2022-11-15T17:34:37;11.7;10.6;6.5
45112;PMS5003;30873;53.908;27.576;2022-11-15T17:38:59;11.9;10.9;6.7
45112;PMS5003;30873;53.908;27.576;2022-11-15T17:44:09;10.3;8.5;5.3
45112;PMS5003;30873;53.908;27.576;2022-11-15T17:49:49;10.6;9.5;5.9
45112;PMS5003;30873;53.908;27.576;2022-11-15T17:54:49;11.5;10.7;6.2
45112;PMS5003;30873;53.908;27.576;2022-11-15T17:59:45;14;10.9;7.1
45112;PMS5003;30873;53.908;27.576;2022-11-15T18:03:57;12;10.4;6.3
45112;PMS5003;30873;53.908;27.576;2022-11-15T18:09:35;11.5;9.7;6.1
45112;PMS5003;30873;53.908;27.576;2022-11-15T18:14:33;11.4;10.5;6.6
45112;PMS5003;30873;53.908;27.576;2022-11-15T18:19:13;12.5;10.7;7.1
45112;PMS5003;30873;53.908;27.576;2022-11-15T18:24:49;12.8;10.8;6.9
45112;PMS5003;30873;53.908;27.576;2022-11-15T18:29:07;12.2;9.8;5.9
45112;PMS5003;30873;53.908;27.576;2022-11-15T18:34:33;13.9;11.8;7.1
45112;PMS5003;30873;53.908;27.576;2022-11-15T18:39:19;12.2;10.7;6.2
45112;PMS5003;30873;53.908;27.576;2022-11-15T18:44:49;12.4;11.2;6.6
45112;PMS5003;30873;53.908;27.576;2022-11-15T18:49:23;13.5;11.3;6.8
45112;PMS5003;30873;53.908;27.576;2022-11-15T18:54:10;15;13;7.5
45112;PMS5003;30873;53.908;27.576;2022-11-15T18:59:33;14;12.1;7.1
45112;PMS5003;30873;53.908;27.576;2022-11-15T19:04:45;15.6;13.6;7.2
45112;PMS5003;30873;53.908;27.576;2022-11-15T19:09:49;16.8;13.5;7.1
45112;PMS5003;30873;53.908;27.576;2022-11-15T19:14:37;16;12.5;7.5
45112;PMS5003;30873;53.908;27.576;2022-11-15T19:19:00;16.4;13.7;7.2
45112;PMS5003;30873;53.908;27.576;2022-11-15T19:24:45;15;13.4;7.2
45112;PMS5003;30873;53.908;27.576;2022-11-15T19:29:21;15.8;13.8;7.6
45112;PMS5003;30873;53.908;27.576;2022-11-15T19:34:23;16.6;13.4;7.3
45112;PMS5003;30873;53.908;27.576;2022-11-15T19:39:51;16.2;12.8;7.2
45112;PMS5003;30873;53.908;27.576;2022-11-15T19:44:10;16;13.3;7.6
45112;PMS5003;30873;53.908;27.576;2022-11-15T19:49:33;17.8;14.5;7.8
45112;PMS5003;30873;53.908;27.576;2022-11-15T19:54:19;17.9;14.8;7.8
45112;PMS5003;30873;53.908;27.576;2022-11-15T19:59:47;17.3;14.7;8
45112;PMS5003;30873;53.908;27.576;2022-11-15T20:04:23;17.4;15;7.9
45112;PMS5003;30873;53.908;27.576;2022-11-15T20:09:35;18;13.6;8
45112;PMS5003;30873;53.908;27.576;2022-11-15T20:14:21;15.6;13.1;7.7
45112;PMS5003;30873;53.908;27.576;2022-11-15T20:19:49;20;16;8
45112;PMS5003;30873;53.908;27.576;2022-11-15T20:24:19;17.9;15;7.8
45112;PMS5003;30873;53.908;27.576;2022-11-15T20:29:51;19.2;15.5;8.6
45112;PMS5003;30873;53.908;27.576;2022-11-15T20:33:59;16.6;13.8;7.9
45112;PMS5003;30873;53.908;27.576;2022-11-15T20:39:37;15.5;13.4;7.5
45112;PMS5003;30873;53.908;27.576;2022-11-15T20:44:33;14.6;12.6;6.7
45112;PMS5003;30873;53.908;27.576;2022-11-15T20:49:35;15.3;13.7;7.9
45112;PMS5003;30873;53.908;27.576;2022-11-15T20:54:51;15.9;12.3;6.8
45112;PMS5003;30873;53.908;27.576;2022-11-15T20:58:57;15.5;11.9;6.8
45112;PMS5003;30873;53.908;27.576;2022-11-15T21:04:49;16.1;12.9;7.3
45112;PMS5003;30873;53.908;27.576;2022-11-15T21:09:21;15.1;12.1;6.6
45112;PMS5003;30873;53.908;27.576;2022-11-15T21:14:33;14.2;12.2;7
45112;PMS5003;30873;53.908;27.576;2022-11-15T21:19:09;12.1;10.5;5.8
45112;PMS5003;30873;53.908;27.576;2022-11-15T21:24:09;12.9;10.2;6.2
45112;PMS5003;30873;53.908;27.576;2022-11-15T21:29:17;12.9;10.4;6
45112;PMS5003;30873;53.908;27.576;2022-11-15T21:34:35;10.5;8.9;5.2
45112;PMS5003;30873;53.908;27.576;2022-11-15T21:39:19;11.3;9.5;5.2
45112;PMS5003;30873;53.908;27.576;2022-11-15T21:44:49;11.4;9.7;5.5
45112;PMS5003;30873;53.908;27.576;2022-11-15T21:49:09;13;10;5.5
45112;PMS5003;30873;53.908;27.576;2022-11-15T21:54:49;10.9;8.8;5.1
45112;PMS5003;30873;53.908;27.576;2022-11-15T21:59:29;11.3;9.3;5.3
45112;PMS5003;30873;53.908;27.576;2022-11-15T22:04:15;11.2;9.3;5.3
45112;PMS5003;30873;53.908;27.576;2022-11-15T22:09:45;11.6;9.6;5.3
45112;PMS5003;30873;53.908;27.576;2022-11-15T22:13:57;10.6;8.3;4.7
45112;PMS5003;30873;53.908;27.576;2022-11-15T22:19:45;10.6;8.4;4.7
45112;PMS5003;30873;53.908;27.576;2022-11-15T22:24:15;10.2;8.7;4.9
45112;PMS5003;30873;53.908;27.576;2022-11-15T22:29:27;9.5;7.7;4.9
45112;PMS5003;30873;53.908;27.576;2022-11-15T22:34:13;9.3;8;4.2
45112;PMS5003;30873;53.908;27.576;2022-11-15T22:38:59;9.8;8.7;4.8
45112;PMS5003;30873;53.908;27.576;2022-11-15T22:44:15;10.4;8.4;4.8
45112;PMS5003;30873;53.908;27.576;2022-11-15T22:49:33;10.5;8.6;4.9
45112;PMS5003;30873;53.908;27.576;2022-11-15T22:54:15;10;8.9;5
45112;PMS5003;30873;53.908;27.576;2022-11-15T22:59:45;11;9.6;5.3
45112;PMS5003;30873;53.908;27.576;2022-11-15T23:03:59;9.9;7.8;4.5
45112;PMS5003;30873;53.908;27.576;2022-11-15T23:09:33;8.7;7.5;4.5
45112;PMS5003;30873;53.908;27.576;2022-11-15T23:14:29;9.7;8;4.6
45112;PMS5003;30873;53.908;27.576;2022-11-15T23:19:33;10.1;7.4;4.5
45112;PMS5003;30873;53.908;27.576;2022-11-15T23:24:45;10.4;9;4.4
45112;PMS5003;30873;53.908;27.576;2022-11-15T23:29:04;10;9;4.8
45112;PMS5003;30873;53.908;27.576;2022-11-15T23:34:45;10.6;8.1;4.4
45112;PMS5003;30873;53.908;27.576;2022-11-15T23:39:15;9.6;7.9;4.6
45112;PMS5003;30873;53.908;27.576;2022-11-15T23:44:31;9.7;7.8;4.7
45112;PMS5003;30873;53.908;27.576;2022-11-15T23:49:19;10.5;8.8;5
45112;PMS5003;30873;53.908;27.576;2022-11-15T23:53:59;11.1;9.2;5.1
45112;PMS5003;30873;53.908;27.576;2022-11-15T23:58:57;11.6;10.2;5.8
